Time;durP1;ratioP1;P1;durP2;ratioP2;P2;SDS_P1;SDS_P2;PMS_P1;PMS_P2;Temp;Humidity;BMP_temperature;BMP_pressure;BME280_temperature;BME280_humidity;BME280_pressure;Samples;Min_cycle;Max_cycle;Signal;HPM_P1;HPM_P2
2021/07/05 00:01:06;;;;;;;1.70;1.60;;;;;;;;;;494641;240;27480;-73
2021/07/05 00:03:08;;;;;;;1.73;1.60;;;;;;;;;;494627;240;27924;-73
2021/07/05 00:05:10;;;;;;;1.90;1.73;;;;;;;;;;494633;240;27398;-73
2021/07/05 00:07:12;;;;;;;1.70;1.60;;;;;;;;;;494643;240;27967;-73
2021/07/05 00:09:14;;;;;;;1.80;1.70;;;;;;;;;;494656;240;27421;-73
2021/07/05 00:11:16;;;;;;;4.30;2.10;;;;;;;;;;494679;240;27967;-73
2021/07/05 00:13:18;;;;;;;3.80;1.90;;;;;;;;;;494649;240;27512;-73
2021/07/05 00:15:20;;;;;;;2.17;2.07;;;;;;;;;;494653;240;27993;-74
2021/07/05 00:17:22;;;;;;;1.97;1.87;;;;;;;;;;494662;240;27520;-73
2021/07/05 00:19:25;;;;;;;2.00;1.90;;;;;;;;;;494678;240;27992;-73
2021/07/05 00:21:27;;;;;;;2.50;1.70;;;;;;;;;;494664;240;27455;-73
2021/07/05 00:23:29;;;;;;;1.77;1.67;;;;;;;;;;494589;240;28087;-73
2021/07/05 00:25:31;;;;;;;1.90;1.80;;;;;;;;;;494639;240;27435;-73
2021/07/05 00:27:33;;;;;;;1.70;1.60;;;;;;;;;;494647;240;28090;-73
2021/07/05 00:29:35;;;;;;;1.90;1.80;;;;;;;;;;494647;240;27528;-73
2021/07/05 00:31:37;;;;;;;2.43;2.17;;;;;;;;;;494656;240;27890;-73
2021/07/05 00:33:39;;;;;;;2.17;2.07;;;;;;;;;;494634;240;27433;-73
2021/07/05 00:35:41;;;;;;;1.90;1.80;;;;;;;;;;494633;240;27409;-73
2021/07/05 00:37:44;;;;;;;1.83;1.73;;;;;;;;;;494669;240;27453;-73
2021/07/05 00:39:46;;;;;;;1.87;1.77;;;;;;;;;;494632;240;27505;-73
2021/07/05 00:41:48;;;;;;;1.93;1.83;;;;;;;;;;494674;240;27484;-73
2021/07/05 00:43:50;;;;;;;1.80;1.70;;;;;;;;;;494654;240;27915;-74
2021/07/05 00:45:52;;;;;;;2.10;1.63;;;;;;;;;;494651;240;27497;-73
2021/07/05 00:47:54;;;;;;;1.80;1.70;;;;;;;;;;494627;240;27836;-73
2021/07/05 00:49:56;;;;;;;1.87;1.77;;;;;;;;;;494635;240;27483;-73
2021/07/05 00:51:58;;;;;;;3.07;1.63;;;;;;;;;;494614;240;27892;-74
2021/07/05 00:54:00;;;;;;;1.90;1.80;;;;;;;;;;494598;240;27568;-73
2021/07/05 00:56:05;;;;;;;1.83;1.73;;;;;;;;;;494621;240;27928;-73
2021/07/05 00:58:05;;;;;;;1.70;1.60;;;;;;;;;;494489;240;27493;-73
2021/07/05 01:00:07;;;;;;;1.83;1.73;;;;;;;;;;494645;240;27899;-73
2021/07/05 01:02:09;;;;;;;1.90;1.80;;;;;;;;;;494639;240;27439;-73
2021/07/05 01:04:11;;;;;;;2.03;1.93;;;;;;;;;;494616;240;27826;-73
2021/07/05 01:06:13;;;;;;;1.73;1.63;;;;;;;;;;494639;240;27401;-73
2021/07/05 01:08:15;;;;;;;1.70;1.60;;;;;;;;;;494672;240;28054;-73
2021/07/05 01:10:17;;;;;;;1.90;1.80;;;;;;;;;;494656;240;27642;-73
2021/07/05 01:12:20;;;;;;;1.80;1.70;;;;;;;;;;494681;240;27983;-73
2021/07/05 01:14:22;;;;;;;1.70;1.60;;;;;;;;;;494633;240;27627;-73
2021/07/05 01:16:24;;;;;;;1.90;1.80;;;;;;;;;;494644;240;28026;-73
2021/07/05 01:18:27;;;;;;;1.97;1.87;;;;;;;;;;494640;240;27513;-73
2021/07/05 01:20:28;;;;;;;1.73;1.63;;;;;;;;;;494605;240;27963;-73
2021/07/05 01:22:30;;;;;;;2.00;1.90;;;;;;;;;;494614;240;27581;-73
2021/07/05 01:24:32;;;;;;;1.70;1.60;;;;;;;;;;494623;240;27862;-73
2021/07/05 01:26:34;;;;;;;2.43;1.73;;;;;;;;;;494627;240;27606;-73
2021/07/05 01:28:36;;;;;;;1.80;1.70;;;;;;;;;;494616;240;27514;-73
2021/07/05 01:30:40;;;;;;;1.87;1.70;;;;;;;;;;494616;240;27535;-73
2021/07/05 01:32:41;;;;;;;1.80;1.53;;;;;;;;;;494506;240;27534;-73
2021/07/05 01:34:43;;;;;;;1.93;1.83;;;;;;;;;;494619;240;27417;-73
2021/07/05 01:36:45;;;;;;;1.60;1.53;;;;;;;;;;494622;240;27417;-73
2021/07/05 01:38:50;;;;;;;1.70;1.60;;;;;;;;;;494653;240;27421;-73
2021/07/05 01:40:49;;;;;;;1.93;1.70;;;;;;;;;;494446;240;27413;-73
2021/07/05 01:42:51;;;;;;;1.87;1.60;;;;;;;;;;494611;240;27379;-73
2021/07/05 01:44:53;;;;;;;1.60;1.50;;;;;;;;;;494634;240;27371;-73
2021/07/05 01:46:55;;;;;;;2.00;1.90;;;;;;;;;;494645;237;27473;-74
2021/07/05 01:48:58;;;;;;;2.07;1.70;;;;;;;;;;494678;240;27480;-73
2021/07/05 01:51:00;;;;;;;2.03;1.93;;;;;;;;;;494654;240;27390;-73
2021/07/05 01:53:02;;;;;;;1.80;1.70;;;;;;;;;;494659;240;27957;-73
2021/07/05 01:55:04;;;;;;;1.80;1.70;;;;;;;;;;494692;240;27516;-74
2021/07/05 01:57:06;;;;;;;2.27;1.63;;;;;;;;;;494676;240;27949;-73
2021/07/05 01:59:08;;;;;;;1.87;1.63;;;;;;;;;;494643;240;27552;-73
2021/07/05 02:01:10;;;;;;;2.17;1.97;;;;;;;;;;494679;240;28004;-73
2021/07/05 02:03:12;;;;;;;1.67;1.57;;;;;;;;;;494673;240;27576;-73
2021/07/05 02:05:14;;;;;;;2.40;1.77;;;;;;;;;;494640;240;28222;-73
2021/07/05 02:07:17;;;;;;;1.70;1.60;;;;;;;;;;494636;240;27520;-73
2021/07/05 02:09:19;;;;;;;1.70;1.60;;;;;;;;;;494684;240;27413;-73
2021/07/05 02:11:21;;;;;;;1.77;1.63;;;;;;;;;;494689;240;27517;-73
2021/07/05 02:13:23;;;;;;;1.80;1.70;;;;;;;;;;494679;240;27520;-73
2021/07/05 02:15:25;;;;;;;1.67;1.57;;;;;;;;;;494672;240;27491;-73
2021/07/05 02:17:27;;;;;;;1.60;1.50;;;;;;;;;;494677;240;27565;-73
2021/07/05 02:19:29;;;;;;;1.67;1.57;;;;;;;;;;494665;240;27583;-73
2021/07/05 02:21:31;;;;;;;1.87;1.77;;;;;;;;;;494656;240;27433;-73
2021/07/05 02:23:34;;;;;;;1.60;1.50;;;;;;;;;;494644;240;27560;-73
2021/07/05 02:25:37;;;;;;;2.63;2.10;;;;;;;;;;494650;240;27402;-73
2021/07/05 02:27:38;;;;;;;1.83;1.70;;;;;;;;;;494606;240;27560;-73
2021/07/05 02:29:40;;;;;;;2.03;1.90;;;;;;;;;;494640;240;27591;-73
2021/07/05 02:31:42;;;;;;;1.93;1.83;;;;;;;;;;494637;240;27596;-73
2021/07/05 02:33:44;;;;;;;2.03;1.93;;;;;;;;;;494614;240;27516;-73
2021/07/05 02:35:46;;;;;;;2.30;2.10;;;;;;;;;;494645;240;27515;-73
2021/07/05 02:37:48;;;;;;;3.30;2.10;;;;;;;;;;494636;240;27428;-73
2021/07/05 02:39:50;;;;;;;3.10;1.90;;;;;;;;;;494670;240;27489;-73
2021/07/05 02:41:53;;;;;;;2.57;1.87;;;;;;;;;;494665;240;27401;-73
2021/07/05 02:43:55;;;;;;;2.83;2.13;;;;;;;;;;494683;240;27402;-73
2021/07/05 02:45:57;;;;;;;1.70;1.60;;;;;;;;;;494592;240;27386;-73
2021/07/05 02:47:59;;;;;;;2.27;2.10;;;;;;;;;;494648;240;27521;-73
2021/07/05 02:50:01;;;;;;;6.40;2.00;;;;;;;;;;494659;240;28015;-73
2021/07/05 02:52:03;;;;;;;2.20;2.10;;;;;;;;;;494656;240;27493;-73
2021/07/05 02:54:05;;;;;;;2.10;1.90;;;;;;;;;;494659;240;27938;-74
2021/07/05 02:56:07;;;;;;;2.17;1.90;;;;;;;;;;494651;240;27382;-73
2021/07/05 02:58:09;;;;;;;2.43;2.10;;;;;;;;;;494647;240;27998;-73
2021/07/05 03:00:12;;;;;;;2.33;2.00;;;;;;;;;;494666;240;27615;-73
2021/07/05 03:02:14;;;;;;;2.07;1.80;;;;;;;;;;494664;240;27937;-73
2021/07/05 03:04:16;;;;;;;2.13;2.03;;;;;;;;;;494621;240;27596;-73
2021/07/05 03:06:18;;;;;;;2.30;2.10;;;;;;;;;;494617;240;27939;-73
2021/07/05 03:08:20;;;;;;;2.13;1.87;;;;;;;;;;494628;240;27393;-73
2021/07/05 03:10:22;;;;;;;2.30;2.20;;;;;;;;;;494626;240;28706;-73
2021/07/05 03:12:24;;;;;;;1.93;1.70;;;;;;;;;;494654;240;27469;-73
2021/07/05 03:14:26;;;;;;;1.73;1.57;;;;;;;;;;494678;240;27912;-73
2021/07/05 03:16:28;;;;;;;3.20;2.77;;;;;;;;;;494613;240;27448;-73
2021/07/05 03:18:31;;;;;;;2.20;2.10;;;;;;;;;;494672;240;27917;-73
2021/07/05 03:20:33;;;;;;;2.30;2.10;;;;;;;;;;494621;240;27520;-73
2021/07/05 03:22:35;;;;;;;1.80;1.70;;;;;;;;;;494664;240;27987;-73
2021/07/05 03:24:37;;;;;;;2.00;1.90;;;;;;;;;;494345;240;27409;-73
2021/07/05 03:26:39;;;;;;;5.07;2.17;;;;;;;;;;494651;240;28128;-73
2021/07/05 03:28:41;;;;;;;2.00;1.80;;;;;;;;;;494635;240;27544;-74
2021/07/05 03:30:43;;;;;;;3.10;1.90;;;;;;;;;;494641;240;27995;-73
2021/07/05 03:32:45;;;;;;;2.00;1.90;;;;;;;;;;494664;240;27673;-73
2021/07/05 03:34:47;;;;;;;2.03;1.93;;;;;;;;;;494638;240;27651;-73
2021/07/05 03:36:50;;;;;;;1.80;1.70;;;;;;;;;;494607;240;27616;-73
2021/07/05 03:38:52;;;;;;;1.80;1.70;;;;;;;;;;494627;240;27572;-73
2021/07/05 03:40:54;;;;;;;1.70;1.60;;;;;;;;;;494644;240;27496;-73
2021/07/05 03:42:57;;;;;;;2.37;2.27;;;;;;;;;;494680;240;27488;-74
2021/07/05 03:44:59;;;;;;;2.03;1.90;;;;;;;;;;494681;240;28451;-73
2021/07/05 03:47:01;;;;;;;3.13;2.00;;;;;;;;;;494696;240;27532;-74
2021/07/05 03:49:03;;;;;;;1.90;1.80;;;;;;;;;;494693;240;28052;-73
2021/07/05 03:51:05;;;;;;;2.50;1.80;;;;;;;;;;494641;240;27445;-73
2021/07/05 03:53:07;;;;;;;2.90;2.10;;;;;;;;;;494672;240;28035;-73
2021/07/05 03:55:10;;;;;;;2.90;2.17;;;;;;;;;;494663;240;27525;-73
2021/07/05 03:57:22;;;;;;;2.47;2.20;;;;;;;;;;494645;240;28003;-73
2021/07/05 03:59:14;;;;;;;2.17;2.03;;;;;;;;;;492698;240;27409;-73
2021/07/05 04:01:16;;;;;;;2.73;2.30;;;;;;;;;;494639;240;27865;-73
2021/07/05 04:03:18;;;;;;;2.97;2.10;;;;;;;;;;494582;240;27442;-73
2021/07/05 04:05:20;;;;;;;2.50;2.30;;;;;;;;;;494508;240;27989;-73
2021/07/05 04:07:22;;;;;;;3.80;2.23;;;;;;;;;;494502;240;27523;-73
2021/07/05 04:09:24;;;;;;;2.20;2.10;;;;;;;;;;494519;240;27909;-73
2021/07/05 04:11:27;;;;;;;2.27;2.03;;;;;;;;;;494554;240;27508;-73
2021/07/05 04:13:29;;;;;;;2.57;2.33;;;;;;;;;;494557;240;27977;-73
2021/07/05 04:15:31;;;;;;;5.63;2.47;;;;;;;;;;494619;240;27505;-73
2021/07/05 04:17:33;;;;;;;2.40;2.30;;;;;;;;;;494642;240;27930;-73
2021/07/05 04:19:35;;;;;;;2.23;2.13;;;;;;;;;;494550;240;28821;-73
2021/07/05 04:21:38;;;;;;;2.20;2.10;;;;;;;;;;494585;240;27489;-73
2021/07/05 04:23:40;;;;;;;2.70;2.30;;;;;;;;;;494626;240;28015;-73
2021/07/05 04:25:42;;;;;;;6.73;2.57;;;;;;;;;;494619;240;27515;-73
2021/07/05 04:27:44;;;;;;;3.40;2.37;;;;;;;;;;494610;240;27975;-73
2021/07/05 04:29:46;;;;;;;2.00;1.90;;;;;;;;;;494650;240;27532;-73
2021/07/05 04:31:48;;;;;;;3.50;2.20;;;;;;;;;;494580;240;27970;-73
2021/07/05 04:33:50;;;;;;;2.20;2.10;;;;;;;;;;494635;240;27428;-73
2021/07/05 04:35:52;;;;;;;2.50;2.30;;;;;;;;;;494666;240;27888;-73
2021/07/05 04:37:54;;;;;;;3.07;2.63;;;;;;;;;;494639;240;27417;-73
2021/07/05 04:39:57;;;;;;;2.80;2.47;;;;;;;;;;494651;240;27888;-74
2021/07/05 04:41:59;;;;;;;2.80;2.60;;;;;;;;;;494642;237;27498;-73
2021/07/05 04:44:01;;;;;;;2.40;2.30;;;;;;;;;;494653;240;27987;-73
2021/07/05 04:46:05;;;;;;;4.40;2.57;;;;;;;;;;494640;240;27409;-73
2021/07/05 04:48:05;;;;;;;2.07;1.97;;;;;;;;;;494524;240;28008;-73
2021/07/05 04:50:07;;;;;;;2.50;2.30;;;;;;;;;;494610;240;27444;-73
2021/07/05 04:52:09;;;;;;;2.83;2.50;;;;;;;;;;494592;240;28146;-74
2021/07/05 04:54:11;;;;;;;2.50;2.30;;;;;;;;;;494599;240;27496;-73
2021/07/05 04:56:13;;;;;;;2.40;2.20;;;;;;;;;;494617;240;27856;-73
2021/07/05 04:58:16;;;;;;;2.40;2.20;;;;;;;;;;494662;240;27458;-73
2021/07/05 05:00:18;;;;;;;2.17;2.07;;;;;;;;;;494679;240;27941;-73
2021/07/05 05:02:20;;;;;;;2.13;2.03;;;;;;;;;;494649;240;27607;-73
2021/07/05 05:04:22;;;;;;;3.50;2.30;;;;;;;;;;494609;240;27906;-73
2021/07/05 05:06:24;;;;;;;2.70;2.50;;;;;;;;;;494625;240;27526;-73
2021/07/05 05:08:26;;;;;;;2.60;2.40;;;;;;;;;;494683;240;27953;-73
2021/07/05 05:10:28;;;;;;;3.30;2.60;;;;;;;;;;494624;240;27501;-73
2021/07/05 05:12:30;;;;;;;2.77;2.57;;;;;;;;;;494619;240;27940;-74
2021/07/05 05:14:32;;;;;;;3.20;2.53;;;;;;;;;;494599;240;27592;-73
2021/07/05 05:16:35;;;;;;;2.20;2.10;;;;;;;;;;494624;240;28054;-73
2021/07/05 05:18:37;;;;;;;2.47;2.20;;;;;;;;;;494610;240;27389;-73
2021/07/05 05:20:39;;;;;;;2.20;2.10;;;;;;;;;;494635;240;28863;-73
2021/07/05 05:22:41;;;;;;;2.10;2.00;;;;;;;;;;494638;240;27481;-74
2021/07/05 05:24:43;;;;;;;2.70;2.50;;;;;;;;;;494647;240;27417;-73
2021/07/05 05:26:45;;;;;;;2.43;2.33;;;;;;;;;;494643;240;27485;-73
2021/07/05 05:28:48;;;;;;;2.63;2.43;;;;;;;;;;494624;240;27517;-73
2021/07/05 05:30:49;;;;;;;2.10;2.00;;;;;;;;;;494650;240;27548;-73
2021/07/05 05:32:52;;;;;;;2.37;2.27;;;;;;;;;;494615;240;27410;-73
2021/07/05 05:34:54;;;;;;;2.60;2.40;;;;;;;;;;494637;240;27532;-73
2021/07/05 05:36:56;;;;;;;2.70;2.50;;;;;;;;;;494594;240;27405;-73
2021/07/05 05:38:58;;;;;;;2.50;2.30;;;;;;;;;;494642;240;27413;-73
2021/07/05 05:41:04;;;;;;;2.13;2.03;;;;;;;;;;494641;240;28085;-73
2021/07/05 05:43:08;;;;;;;4.40;2.40;;;;;;;;;;494558;240;27445;-73
2021/07/05 05:45:08;;;;;;;2.27;2.07;;;;;;;;;;494375;240;27426;-73
2021/07/05 05:47:10;;;;;;;2.13;2.03;;;;;;;;;;494348;240;27416;-73
2021/07/05 05:49:12;;;;;;;1.90;1.80;;;;;;;;;;494450;240;27420;-73
2021/07/05 05:51:14;;;;;;;2.60;2.30;;;;;;;;;;494519;240;27453;-74
2021/07/05 05:53:16;;;;;;;2.40;2.20;;;;;;;;;;494486;240;27437;-74
2021/07/05 05:55:18;;;;;;;2.77;2.10;;;;;;;;;;494597;240;27409;-74
2021/07/05 05:57:28;;;;;;;2.17;2.07;;;;;;;;;;494605;240;27484;-74
2021/07/05 05:59:30;;;;;;;2.87;2.67;;;;;;;;;;494526;240;27504;-73
2021/07/05 06:01:31;;;;;;;2.63;2.43;;;;;;;;;;494532;240;27389;-73
2021/07/05 06:03:33;;;;;;;2.00;1.90;;;;;;;;;;494616;240;27381;-74
2021/07/05 06:05:35;;;;;;;3.87;2.00;;;;;;;;;;494624;240;27480;-74
2021/07/05 06:07:37;;;;;;;10.53;2.50;;;;;;;;;;494660;240;27525;-73
2021/07/05 06:09:39;;;;;;;2.40;2.20;;;;;;;;;;494618;240;27430;-73
2021/07/05 06:11:41;;;;;;;2.20;2.00;;;;;;;;;;494647;240;27478;-73
2021/07/05 06:13:43;;;;;;;2.87;2.17;;;;;;;;;;494637;240;27469;-73
2021/07/05 06:15:46;;;;;;;2.53;2.33;;;;;;;;;;494614;240;27382;-73
2021/07/05 06:17:48;;;;;;;2.30;2.20;;;;;;;;;;491179;240;27385;-73
2021/07/05 06:19:50;;;;;;;2.30;2.20;;;;;;;;;;475299;248;27438;-73
2021/07/05 06:21:52;;;;;;;2.00;1.90;;;;;;;;;;475250;250;27455;-73
2021/07/05 06:23:54;;;;;;;2.17;2.07;;;;;;;;;;475253;250;27441;-73
2021/07/05 06:25:56;;;;;;;2.53;2.37;;;;;;;;;;475257;250;27414;-74
2021/07/05 06:27:58;;;;;;;2.40;2.30;;;;;;;;;;477166;238;27473;-73
2021/07/05 06:30:00;;;;;;;2.20;2.07;;;;;;;;;;489870;243;27710;-73
2021/07/05 06:32:02;;;;;;;2.40;2.20;;;;;;;;;;489885;243;27495;-73
2021/07/05 06:34:05;;;;;;;5.10;3.67;;;;;;;;;;489885;243;27585;-73
2021/07/05 06:36:07;;;;;;;2.40;2.27;;;;;;;;;;489909;243;27887;-73
2021/07/05 06:38:09;;;;;;;1.80;1.70;;;;;;;;;;485355;243;27544;-73
2021/07/05 06:40:11;;;;;;;2.60;2.40;;;;;;;;;;475381;249;27490;-74
2021/07/05 06:42:13;;;;;;;2.50;1.90;;;;;;;;;;465792;255;27494;-74
2021/07/05 06:44:15;;;;;;;2.40;2.20;;;;;;;;;;474021;251;27484;-74
2021/07/05 06:46:17;;;;;;;5.27;2.13;;;;;;;;;;465759;254;27482;-73
2021/07/05 06:48:19;;;;;;;2.00;1.90;;;;;;;;;;482716;234;27567;-73
2021/07/05 06:50:21;;;;;;;2.47;2.27;;;;;;;;;;493634;241;27534;-73
2021/07/05 06:52:24;;;;;;;3.00;2.20;;;;;;;;;;493597;241;27585;-73
2021/07/05 06:54:26;;;;;;;2.37;2.20;;;;;;;;;;493609;241;27545;-74
2021/07/05 06:56:28;;;;;;;2.10;2.00;;;;;;;;;;493625;241;27516;-73
2021/07/05 06:58:30;;;;;;;2.10;2.00;;;;;;;;;;490162;236;27620;-73
2021/07/05 07:00:32;;;;;;;2.43;2.30;;;;;;;;;;486576;244;27456;-73
2021/07/05 07:02:36;;;;;;;2.50;2.30;;;;;;;;;;486593;244;27443;-73
2021/07/05 07:04:36;;;;;;;3.00;2.50;;;;;;;;;;486499;244;27515;-74
2021/07/05 07:06:38;;;;;;;3.43;2.63;;;;;;;;;;486562;244;27437;-73
2021/07/05 07:08:41;;;;;;;2.00;1.90;;;;;;;;;;487293;240;27561;-74
2021/07/05 07:10:43;;;;;;;1.93;1.83;;;;;;;;;;488020;243;27513;-73
2021/07/05 07:12:48;;;;;;;2.20;2.00;;;;;;;;;;488026;243;27473;-73
2021/07/05 07:14:50;;;;;;;2.13;1.93;;;;;;;;;;487994;243;27990;-73
2021/07/05 07:17:02;;;;;;;1.87;1.70;;;;;;;;;;488006;243;27543;-74
2021/07/05 07:21:15;;;;;;;1.60;1.60;;;;;;;;;;486734;244;27533;-73
2021/07/05 07:23:17;;;;;;;2.10;1.60;;;;;;;;;;486725;244;28013;-73
2021/07/05 07:25:19;;;;;;;4.50;1.97;;;;;;;;;;486725;244;27508;-74
2021/07/05 07:27:21;;;;;;;2.07;1.97;;;;;;;;;;486716;244;28049;-74
2021/07/05 07:29:23;;;;;;;2.07;1.97;;;;;;;;;;478655;237;27524;-73
2021/07/05 07:31:25;;;;;;;2.00;1.80;;;;;;;;;;476955;247;27875;-73
2021/07/05 07:33:27;;;;;;;1.90;1.80;;;;;;;;;;476989;247;27424;-74
2021/07/05 07:35:29;;;;;;;1.70;1.60;;;;;;;;;;476982;247;27967;-73
2021/07/05 07:39:45;;;;;;;2.20;2.00;;;;;;;;;;487137;238;27928;-74
2021/07/05 07:41:44;;;;;;;2.33;2.00;;;;;;;;;;486306;244;27626;-74
2021/07/05 07:43:47;;;;;;;1.80;1.70;;;;;;;;;;486489;244;28046;-72
2021/07/05 07:45:49;;;;;;;2.47;1.53;;;;;;;;;;486403;244;27471;-74
2021/07/05 07:47:52;;;;;;;2.47;2.00;;;;;;;;;;486098;240;28070;-73
2021/07/05 07:49:54;;;;;;;2.10;2.00;;;;;;;;;;479292;247;27535;-74
2021/07/05 07:51:55;;;;;;;1.80;1.70;;;;;;;;;;479280;248;28054;-73
2021/07/05 07:53:58;;;;;;;2.10;2.00;;;;;;;;;;479319;247;27546;-73
2021/07/05 07:55:59;;;;;;;1.80;1.70;;;;;;;;;;479276;247;27558;-74
2021/07/05 07:58:01;;;;;;;3.00;1.90;;;;;;;;;;481563;240;27625;-73
2021/07/05 08:00:04;;;;;;;1.70;1.60;;;;;;;;;;474805;248;28030;-72
2021/07/05 08:02:06;;;;;;;1.83;1.40;;;;;;;;;;466960;253;27457;-74
2021/07/05 08:04:09;;;;;;;1.83;1.73;;;;;;;;;;480415;247;28110;-74
2021/07/05 08:06:10;;;;;;;1.63;1.53;;;;;;;;;;478767;246;27405;-74
2021/07/05 08:08:14;;;;;;;4.10;1.80;;;;;;;;;;488637;236;27593;-73
2021/07/05 08:10:14;;;;;;;1.73;1.50;;;;;;;;;;490652;242;27375;-72
2021/07/05 08:12:16;;;;;;;1.50;1.40;;;;;;;;;;490725;242;27374;-72
2021/07/05 08:14:18;;;;;;;1.73;1.63;;;;;;;;;;490750;242;27375;-72
2021/07/05 08:16:20;;;;;;;1.63;1.53;;;;;;;;;;490762;242;27367;-73
2021/07/05 08:18:23;;;;;;;1.90;1.60;;;;;;;;;;485125;241;27480;-74
2021/07/05 08:20:25;;;;;;;3.23;1.60;;;;;;;;;;486981;244;27960;-73
2021/07/05 08:22:27;;;;;;;1.77;1.67;;;;;;;;;;476881;249;27523;-73
2021/07/05 08:24:29;;;;;;;1.60;1.50;;;;;;;;;;487481;244;27846;-72
2021/07/05 08:26:31;;;;;;;1.80;1.70;;;;;;;;;;476850;249;27637;-74
2021/07/05 08:28:33;;;;;;;2.37;1.60;;;;;;;;;;488086;237;27909;-73
2021/07/05 08:30:35;;;;;;;2.13;1.60;;;;;;;;;;488356;243;27472;-74
2021/07/05 08:32:37;;;;;;;3.10;1.80;;;;;;;;;;488362;243;28611;-72
2021/07/05 08:34:39;;;;;;;3.60;2.00;;;;;;;;;;488330;243;27476;-72
2021/07/05 08:36:42;;;;;;;2.00;1.80;;;;;;;;;;488342;243;27974;-73
2021/07/05 08:38:44;;;;;;;2.10;1.90;;;;;;;;;;482399;237;27781;-74
2021/07/05 08:40:46;;;;;;;1.73;1.63;;;;;;;;;;476551;249;27947;-74
2021/07/05 08:42:48;;;;;;;2.00;1.90;;;;;;;;;;476602;249;27474;-73
2021/07/05 08:44:50;;;;;;;2.07;1.87;;;;;;;;;;476609;249;27936;-74
2021/07/05 08:46:52;;;;;;;2.17;1.97;;;;;;;;;;476598;249;27461;-73
2021/07/05 08:48:54;;;;;;;2.07;1.83;;;;;;;;;;477937;236;27944;-74
2021/07/05 08:50:56;;;;;;;1.67;1.57;;;;;;;;;;476251;250;27476;-73
2021/07/05 08:53:01;;;;;;;1.90;1.80;;;;;;;;;;476258;250;27948;-74
2021/07/05 08:55:03;;;;;;;2.23;1.80;;;;;;;;;;476258;250;27416;-73
2021/07/05 08:57:08;;;;;;;1.83;1.73;;;;;;;;;;476247;250;27943;-73
2021/07/05 08:59:08;;;;;;;2.27;2.07;;;;;;;;;;476964;236;27603;-73
2021/07/05 09:01:10;;;;;;;2.87;1.90;;;;;;;;;;476893;249;28775;-74
2021/07/05 09:03:12;;;;;;;1.80;1.70;;;;;;;;;;476978;248;27557;-73
2021/07/05 09:05:14;;;;;;;2.20;2.00;;;;;;;;;;476986;248;28803;-74
2021/07/05 09:07:16;;;;;;;1.97;1.77;;;;;;;;;;476936;249;27569;-73
2021/07/05 09:09:18;;;;;;;1.80;1.70;;;;;;;;;;476997;236;27571;-73
2021/07/05 09:11:20;;;;;;;1.90;1.80;;;;;;;;;;475541;248;27543;-74
2021/07/05 09:13:23;;;;;;;1.90;1.80;;;;;;;;;;469546;252;28019;-73
2021/07/05 09:15:25;;;;;;;2.07;1.97;;;;;;;;;;469546;253;27478;-72
2021/07/05 09:17:27;;;;;;;1.83;1.70;;;;;;;;;;469557;253;28046;-73
2021/07/05 09:19:29;;;;;;;2.30;1.67;;;;;;;;;;492734;234;27486;-74
2021/07/05 09:21:31;;;;;;;2.13;1.93;;;;;;;;;;491443;241;27923;-73
2021/07/05 09:23:33;;;;;;;1.80;1.70;;;;;;;;;;491782;241;27498;-72
2021/07/05 09:25:35;;;;;;;5.70;1.87;;;;;;;;;;491816;241;27884;-74
2021/07/05 09:29:45;;;;;;;1.60;1.50;;;;;;;;;;478753;244;27447;-74
2021/07/05 09:31:48;;;;;;;1.43;1.43;;;;;;;;;;480882;247;27527;-73
2021/07/05 09:33:50;;;;;;;2.10;1.60;;;;;;;;;;478665;248;27423;-74
2021/07/05 09:35:55;;;;;;;1.60;1.40;;;;;;;;;;478683;248;27400;-73
2021/07/05 09:38:00;;;;;;;1.20;1.20;;;;;;;;;;478699;240;27816;-74
2021/07/05 09:39:59;;;;;;;1.60;1.50;;;;;;;;;;481015;247;27447;-72
2021/07/05 09:42:01;;;;;;;1.77;1.67;;;;;;;;;;481765;247;27958;-74
2021/07/05 09:44:06;;;;;;;1.50;1.40;;;;;;;;;;481764;247;27522;-74
2021/07/05 09:46:05;;;;;;;4.20;1.30;;;;;;;;;;476843;249;27569;-74
2021/07/05 09:48:08;;;;;;;1.60;1.50;;;;;;;;;;478779;237;28108;-72
2021/07/05 09:50:10;;;;;;;1.40;1.30;;;;;;;;;;501204;237;27370;-74
2021/07/05 09:52:12;;;;;;;1.60;1.50;;;;;;;;;;501788;237;27849;-74
2021/07/05 09:54:14;;;;;;;2.13;1.30;;;;;;;;;;481652;246;27611;-73
2021/07/05 09:56:16;;;;;;;1.20;1.10;;;;;;;;;;501743;237;27947;-74
2021/07/05 09:58:18;;;;;;;1.30;1.30;;;;;;;;;;496902;231;27488;-74
2021/07/05 10:00:20;;;;;;;1.30;1.20;;;;;;;;;;486993;244;27600;-74
2021/07/05 10:02:22;;;;;;;1.20;1.20;;;;;;;;;;487047;244;27488;-74
2021/07/05 10:04:28;;;;;;;1.50;1.40;;;;;;;;;;486987;244;27477;-74
2021/07/05 10:06:30;;;;;;;1.73;1.50;;;;;;;;;;486907;244;27533;-74
2021/07/05 10:08:32;;;;;;;1.20;1.20;;;;;;;;;;486975;244;27547;-73
2021/07/05 10:10:34;;;;;;;1.53;1.43;;;;;;;;;;486859;244;27528;-73
2021/07/05 10:12:36;;;;;;;1.40;1.30;;;;;;;;;;487001;244;27531;-73
2021/07/05 10:14:38;;;;;;;1.30;1.30;;;;;;;;;;486964;244;27499;-73
2021/07/05 10:16:40;;;;;;;1.73;1.23;;;;;;;;;;487023;244;27523;-73
2021/07/05 10:18:43;;;;;;;1.37;1.37;;;;;;;;;;486996;244;27488;-73
2021/07/05 10:20:45;;;;;;;3.03;1.20;;;;;;;;;;487024;244;27514;-73
2021/07/05 10:22:47;;;;;;;1.47;1.37;;;;;;;;;;486983;244;27600;-74
2021/07/05 10:24:49;;;;;;;1.63;1.53;;;;;;;;;;487013;240;27524;-73
2021/07/05 10:26:51;;;;;;;1.30;1.30;;;;;;;;;;486982;244;27532;-74
2021/07/05 10:28:53;;;;;;;1.40;1.40;;;;;;;;;;486986;244;28058;-73
2021/07/05 10:30:55;;;;;;;1.50;1.40;;;;;;;;;;487009;244;27466;-73
2021/07/05 10:32:57;;;;;;;1.70;1.60;;;;;;;;;;487015;244;27924;-74
2021/07/05 10:34:59;;;;;;;1.40;1.30;;;;;;;;;;487008;244;27477;-73
2021/07/05 10:37:01;;;;;;;2.17;1.40;;;;;;;;;;486984;244;28023;-73
2021/07/05 10:39:04;;;;;;;1.87;1.40;;;;;;;;;;486975;244;27557;-73
2021/07/05 10:41:06;;;;;;;1.40;1.30;;;;;;;;;;486985;244;28025;-73
2021/07/05 10:43:08;;;;;;;1.47;1.37;;;;;;;;;;486999;244;27481;-73
2021/07/05 10:45:10;;;;;;;1.50;1.40;;;;;;;;;;487002;244;28001;-74
2021/07/05 10:47:12;;;;;;;1.23;1.13;;;;;;;;;;487007;240;27602;-73
2021/07/05 10:49:14;;;;;;;1.33;1.23;;;;;;;;;;487004;240;27976;-73
2021/07/05 10:51:16;;;;;;;1.10;1.10;;;;;;;;;;487034;244;27481;-74
2021/07/05 10:53:19;;;;;;;1.10;1.10;;;;;;;;;;487000;244;27595;-73
2021/07/05 10:55:21;;;;;;;1.13;1.13;;;;;;;;;;487006;244;27507;-74
2021/07/05 10:57:23;;;;;;;1.30;1.20;;;;;;;;;;487009;244;27523;-73
2021/07/05 10:59:28;;;;;;;1.53;1.30;;;;;;;;;;491215;237;27975;-74
2021/07/05 11:01:27;;;;;;;1.30;1.20;;;;;;;;;;485816;244;27522;-74
2021/07/05 11:03:29;;;;;;;1.17;1.17;;;;;;;;;;485935;244;27436;-74
2021/07/05 11:05:31;;;;;;;1.23;1.13;;;;;;;;;;484584;245;27516;-74
2021/07/05 11:09:44;;;;;;;1.20;1.10;;;;;;;;;;488100;232;28073;-73
2021/07/05 11:11:43;;;;;;;1.20;1.20;;;;;;;;;;470723;252;27569;-74
2021/07/05 11:13:45;;;;;;;1.87;1.07;;;;;;;;;;471103;252;27481;-74
2021/07/05 11:15:48;;;;;;;1.10;1.00;;;;;;;;;;471124;252;27585;-74
2021/07/05 11:17:50;;;;;;;6.67;1.10;;;;;;;;;;474486;231;27518;-74
2021/07/05 11:19:53;;;;;;;1.10;1.10;;;;;;;;;;479011;244;27385;-74
2021/07/05 11:21:54;;;;;;;1.00;1.00;;;;;;;;;;478848;248;27748;-74
2021/07/05 11:23:57;;;;;;;0.90;0.90;;;;;;;;;;464038;256;27570;-74
2021/07/05 11:25:58;;;;;;;1.10;0.90;;;;;;;;;;464062;256;27572;-74
2021/07/05 11:28:03;;;;;;;1.00;1.00;;;;;;;;;;466861;243;27505;-73
2021/07/05 11:30:02;;;;;;;1.20;1.20;;;;;;;;;;480714;247;27425;-74
2021/07/05 11:32:04;;;;;;;1.30;1.20;;;;;;;;;;481114;246;27454;-71
2021/07/05 11:34:07;;;;;;;1.00;1.00;;;;;;;;;;475937;246;27466;-71
2021/07/05 11:36:11;;;;;;;1.20;1.20;;;;;;;;;;484496;245;28029;-72
2021/07/05 11:38:11;;;;;;;1.30;1.20;;;;;;;;;;477694;241;27397;-73
2021/07/05 11:40:13;;;;;;;0.90;0.90;;;;;;;;;;479861;248;28052;-73
2021/07/05 11:42:15;;;;;;;1.00;1.00;;;;;;;;;;486205;244;27424;-72
2021/07/05 11:44:18;;;;;;;1.20;1.20;;;;;;;;;;486231;244;27907;-74
2021/07/05 11:46:19;;;;;;;1.20;1.20;;;;;;;;;;486177;244;27514;-73
2021/07/05 11:48:21;;;;;;;1.20;1.20;;;;;;;;;;488170;239;28006;-73
2021/07/05 11:50:29;;;;;;;1.10;1.10;;;;;;;;;;495860;239;27460;-73
2021/07/05 11:52:29;;;;;;;1.00;1.00;;;;;;;;;;495423;240;27405;-74
2021/07/05 11:54:31;;;;;;;1.10;1.10;;;;;;;;;;495834;239;27424;-73
2021/07/05 11:56:33;;;;;;;1.20;1.10;;;;;;;;;;495821;239;27404;-74
2021/07/05 11:58:35;;;;;;;1.10;1.10;;;;;;;;;;491648;239;27523;-71
2021/07/05 12:00:37;;;;;;;1.10;1.10;;;;;;;;;;489222;242;27617;-73
2021/07/05 12:02:39;;;;;;;1.03;1.03;;;;;;;;;;489300;242;28084;-73
2021/07/05 12:04:41;;;;;;;1.03;1.03;;;;;;;;;;487247;242;27440;-74
2021/07/05 12:06:44;;;;;;;1.43;0.90;;;;;;;;;;487238;242;27893;-74
2021/07/05 12:08:46;;;;;;;1.00;1.00;;;;;;;;;;487167;242;27507;-73
2021/07/05 12:10:48;;;;;;;1.13;1.13;;;;;;;;;;487217;242;27490;-73
2021/07/05 12:12:50;;;;;;;1.17;1.07;;;;;;;;;;487209;242;27414;-74
2021/07/05 12:14:52;;;;;;;1.00;1.00;;;;;;;;;;487245;242;27509;-74
2021/07/05 12:16:54;;;;;;;1.10;1.10;;;;;;;;;;489307;242;27494;-74
2021/07/05 12:18:57;;;;;;;1.10;1.10;;;;;;;;;;489274;242;28063;-73
2021/07/05 12:20:58;;;;;;;1.10;1.10;;;;;;;;;;489290;239;27563;-73